Time;durP1;ratioP1;P1;durP2;ratioP2;P2;SDS_P1;SDS_P2;PMS_P1;PMS_P2;Temp;Humidity;BMP_temperature;BMP_pressure;BME280_temperature;BME280_humidity;BME280_pressure;Samples;Min_cycle;Max_cycle;Signal;HPM_P1;HPM_P2
2022/06/17 00:01:24;;;;;;;;;;;;;;;21.60;58.83;100003.34;4325913;33;19984;-79
2022/06/17 00:03:54;;;;;;;;;;;;;;;21.68;58.70;100006.66;4351290;32;19999;-81
2022/06/17 00:06:22;;;;;;;;;;;;;;;21.63;59.36;100008.53;4331306;32;20007;-79
2022/06/17 00:08:49;;;;;;;;;;;;;;;21.88;57.65;100002.63;4349055;32;20048;-79
2022/06/17 00:11:18;;;;;;;;;;;;;;;21.71;58.36;99998.69;4349135;32;19988;-81
2022/06/17 00:13:45;;;;;;;;;;;;;;;21.55;58.81;100005.25;4331510;33;20014;-79
2022/06/17 00:16:13;;;;;;;;;;;;;;;21.56;58.89;100002.56;4328097;32;20460;-80
2022/06/17 00:18:40;;;;;;;;;;;;;;;21.54;58.79;100003.53;4326162;33;20425;-80
2022/06/17 00:21:11;;;;;;;;;;;;;;;21.57;59.23;99998.19;4331466;33;19994;-81
2022/06/17 00:23:38;;;;;;;;;;;;;;;21.63;58.67;99992.72;4350429;32;20095;-80
2022/06/17 00:26:05;;;;;;;;;;;;;;;21.51;59.31;99998.34;4325687;33;19976;-79
2022/06/17 00:28:32;;;;;;;;;;;;;;;21.45;59.63;100009.91;4334096;32;20003;-79
2022/06/17 00:30:58;;;;;;;;;;;;;;;21.30;59.86;100011.13;4333776;33;19971;-80
2022/06/17 00:33:26;;;;;;;;;;;;;;;21.31;59.45;100007.59;4325815;32;19988;-79
2022/06/17 00:35:54;;;;;;;;;;;;;;;21.49;58.98;100005.41;4325967;33;20031;-79
2022/06/17 00:38:26;;;;;;;;;;;;;;;21.52;58.41;100021.16;4332330;33;19988;-81
2022/06/17 00:40:53;;;;;;;;;;;;;;;21.19;59.76;100023.69;4326022;33;19997;-80
2022/06/17 00:43:40;;;;;;;;;;;;;;;21.29;59.30;100019.94;4325189;33;20401;-81
2022/06/17 00:46:07;;;;;;;;;;;;;;;21.25;59.51;100018.28;4325640;33;20034;-80
2022/06/17 00:48:43;;;;;;;;;;;;;;;21.28;59.17;100012.94;4325620;33;20471;-79
2022/06/17 00:51:19;;;;;;;;;;;;;;;21.21;58.98;99989.41;4348313;32;19984;-80
2022/06/17 00:53:50;;;;;;;;;;;;;;;21.18;59.37;99993.00;4348484;32;20002;-80
2022/06/17 00:56:22;;;;;;;;;;;;;;;21.16;59.52;100000.09;4350211;32;19987;-79
2022/06/17 00:58:56;;;;;;;;;;;;;;;21.18;59.38;99993.00;4355005;32;19988;-79
2022/06/17 01:01:23;;;;;;;;;;;;;;;21.17;59.03;99999.16;4326836;33;19980;-78
2022/06/17 01:03:51;;;;;;;;;;;;;;;21.10;59.63;100000.22;4355289;32;19998;-80
2022/06/17 01:06:20;;;;;;;;;;;;;;;20.97;60.19;99996.16;4348371;32;20321;-79
2022/06/17 01:11:32;;;;;;;;;;;;;;;21.18;58.84;99995.63;4332852;32;19990;-79
2022/06/17 01:13:59;;;;;;;;;;;;;;;21.22;58.89;99997.28;4327289;32;19980;-81
2022/06/17 01:16:33;;;;;;;;;;;;;;;20.96;59.63;99997.03;4350496;32;20303;-80
2022/06/17 01:19:01;;;;;;;;;;;;;;;21.10;59.67;100003.72;4350173;32;20035;-80
2022/06/17 01:21:32;;;;;;;;;;;;;;;21.11;59.58;100004.59;4350154;32;20401;-79
2022/06/17 01:24:00;;;;;;;;;;;;;;;21.12;59.47;100001.94;4329248;33;19976;-79
2022/06/17 01:26:27;;;;;;;;;;;;;;;21.01;60.09;100011.84;4345110;32;20275;-79
2022/06/17 01:28:54;;;;;;;;;;;;;;;21.00;59.87;100006.63;4357337;32;19989;-79
2022/06/17 01:31:22;;;;;;;;;;;;;;;20.97;59.96;100007.56;4327326;33;19979;-81
2022/06/17 01:33:49;;;;;;;;;;;;;;;20.84;60.40;100014.00;4355442;32;19984;-79
2022/06/17 01:36:17;;;;;;;;;;;;;;;20.80;60.87;100021.09;4342161;32;20318;-78
2022/06/17 01:38:48;;;;;;;;;;;;;;;20.83;60.62;100028.91;4348575;32;20901;-81
2022/06/17 01:41:15;;;;;;;;;;;;;;;20.69;61.39;100027.50;4350322;32;20004;-79
2022/06/17 01:43:47;;;;;;;;;;;;;;;20.60;61.09;100033.84;4358224;32;20074;-80
2022/06/17 01:46:16;;;;;;;;;;;;;;;20.34;62.09;100027.34;4349839;32;19983;-79
2022/06/17 01:48:45;;;;;;;;;;;;;;;20.65;61.06;100031.97;4349824;32;20051;-81
2022/06/17 01:51:13;;;;;;;;;;;;;;;20.77;60.89;100036.97;4332395;32;20003;-79
2022/06/17 01:53:42;;;;;;;;;;;;;;;20.76;60.55;100043.13;4363291;32;19979;-80
2022/06/17 01:56:13;;;;;;;;;;;;;;;20.12;62.79;100041.81;4359638;32;20035;-79
2022/06/17 01:59:00;;;;;;;;;;;;;;;20.46;61.41;100046.41;4353735;32;20452;-80
2022/06/17 02:01:29;;;;;;;;;;;;;;;20.32;62.23;100039.63;4332752;32;20088;-79
2022/06/17 02:03:58;;;;;;;;;;;;;;;20.43;61.08;100048.19;4364566;32;20035;-79
2022/06/17 02:06:49;;;;;;;;;;;;;;;20.46;61.53;100046.41;4361911;32;20006;-79
2022/06/17 02:09:16;;;;;;;;;;;;;;;20.29;62.18;100050.22;4331663;32;20015;-80
2022/06/17 02:11:44;;;;;;;;;;;;;;;20.14;62.77;100047.91;4344342;32;20102;-79
2022/06/17 02:14:12;;;;;;;;;;;;;;;20.41;61.83;100043.84;4334699;32;19998;-80
2022/06/17 02:16:40;;;;;;;;;;;;;;;20.49;61.49;100043.69;4326643;33;20002;-79
2022/06/17 02:19:07;;;;;;;;;;;;;;;20.64;60.87;100035.50;4334014;33;19998;-80
2022/06/17 02:21:36;;;;;;;;;;;;;;;20.66;60.79;100044.22;4327737;33;20043;-80
2022/06/17 02:24:04;;;;;;;;;;;;;;;20.64;60.46;100040.75;4325491;33;19999;-80
2022/06/17 02:26:31;;;;;;;;;;;;;;;20.60;61.03;100034.69;4327795;33;20289;-80
2022/06/17 02:28:58;;;;;;;;;;;;;;;20.61;60.75;100040.81;4356557;32;20022;-79
2022/06/17 02:31:25;;;;;;;;;;;;;;;20.55;61.32;100035.69;4330434;33;19975;-81
2022/06/17 02:33:53;;;;;;;;;;;;;;;20.51;61.27;100029.63;4353513;32;19988;-79
2022/06/17 02:36:24;;;;;;;;;;;;;;;20.72;60.36;100035.34;4351382;32;19994;-79
2022/06/17 02:38:52;;;;;;;;;;;;;;;20.73;60.03;100045.81;4333019;33;19987;-80
2022/06/17 02:41:19;;;;;;;;;;;;;;;20.52;60.81;100041.91;4326889;33;19997;-80
2022/06/17 02:43:48;;;;;;;;;;;;;;;20.21;62.06;100041.63;4325736;32;778629;-80
2022/06/17 02:46:16;;;;;;;;;;;;;;;20.55;60.83;100035.69;4346690;32;19988;-78
2022/06/17 02:48:48;;;;;;;;;;;;;;;20.52;60.37;100047.16;4349562;32;19992;-80
2022/06/17 02:51:15;;;;;;;;;;;;;;;20.64;59.61;100041.63;4329795;33;19998;-80
2022/06/17 02:53:43;;;;;;;;;;;;;;;20.44;60.94;100052.53;4353560;32;19976;-79
2022/06/17 02:56:15;;;;;;;;;;;;;;;20.38;61.06;100052.66;4326725;33;20386;-80
2022/06/17 02:59:03;;;;;;;;;;;;;;;20.44;60.78;100049.91;4357360;32;20053;-80
2022/06/17 03:01:32;;;;;;;;;;;;;;;20.35;61.14;100050.09;4348418;32;20046;-81
2022/06/17 03:04:00;;;;;;;;;;;;;;;20.34;61.40;100048.38;4349791;32;20031;-79
2022/06/17 03:06:33;;;;;;;;;;;;;;;20.49;60.94;100046.34;4053179;32;10000679;-81
2022/06/17 03:09:12;;;;;;;;;;;;;;;20.70;59.59;100040.63;4347919;32;19976;-81
2022/06/17 03:11:40;;;;;;;;;;;;;;;20.50;60.81;100027.00;4349406;32;20048;-79
2022/06/17 03:14:09;;;;;;;;;;;;;;;20.28;61.66;100027.47;4328233;33;20004;-80
2022/06/17 03:16:36;;;;;;;;;;;;;;;20.34;61.18;100032.59;4355232;32;19988;-80
2022/06/17 03:19:03;;;;;;;;;;;;;;;20.35;61.40;100033.44;4337525;33;20031;-80
2022/06/17 03:21:30;;;;;;;;;;;;;;;20.67;59.82;100035.41;4326672;33;20491;-81
2022/06/17 03:24:00;;;;;;;;;;;;;;;20.53;60.95;100029.63;4349563;32;19996;-79
2022/06/17 03:26:30;;;;;;;;;;;;;;;20.61;60.19;100035.56;4327118;33;20030;-79
2022/06/17 03:28:57;;;;;;;;;;;;;;;20.47;61.13;100042.84;4357699;32;19979;-78
2022/06/17 03:31:30;;;;;;;;;;;;;;;20.62;60.57;100047.81;4326107;33;19984;-78
2022/06/17 03:33:59;;;;;;;;;;;;;;;20.48;61.19;100048.06;4334427;33;19994;-82
2022/06/17 03:36:28;;;;;;;;;;;;;;;20.31;62.31;100047.56;4349984;32;19988;-80
2022/06/17 03:38:58;;;;;;;;;;;;;;;20.48;61.66;100049.84;4337837;33;20273;-80
2022/06/17 03:41:32;;;;;;;;;;;;;;;20.64;61.13;100046.91;4340297;32;20353;-79
2022/06/17 03:44:00;;;;;;;;;;;;;;;20.73;60.89;100051.06;4334740;33;19986;-81
2022/06/17 03:46:27;;;;;;;;;;;;;;;20.60;61.50;100060.13;4348764;32;19984;-80
2022/06/17 03:48:54;;;;;;;;;;;;;;;20.72;61.04;100064.28;4349556;32;19968;-81
2022/06/17 03:51:23;;;;;;;;;;;;;;;20.61;61.67;100061.84;4334126;32;19998;-80
2022/06/17 03:53:50;;;;;;;;;;;;;;;20.63;61.49;100070.59;4349317;32;20003;-80
2022/06/17 03:56:17;;;;;;;;;;;;;;;20.79;61.13;100066.72;4349194;32;19983;-81
2022/06/17 03:58:44;;;;;;;;;;;;;;;20.78;60.91;100070.25;4329855;33;20002;-79
2022/06/17 04:01:23;;;;;;;;;;;;;;;20.59;62.20;100074.19;4357506;32;19991;-79
2022/06/17 04:03:53;;;;;;;;;;;;;;;20.73;61.52;100082.62;4341331;32;20073;-80
2022/06/17 04:06:21;;;;;;;;;;;;;;;20.77;61.54;100073.81;4363816;32;20034;-81
2022/06/17 04:08:50;;;;;;;;;;;;;;;20.78;61.60;100075.53;4364131;32;19975;-81
2022/06/17 04:11:17;;;;;;;;;;;;;;;20.70;62.17;100081.84;4361059;32;20011;-80
2022/06/17 04:13:45;;;;;;;;;;;;;;;20.82;61.41;100077.19;4338399;32;20048;-79
2022/06/17 04:16:20;;;;;;;;;;;;;;;20.91;61.25;100084.00;4348717;32;19998;-81
2022/06/17 04:18:47;;;;;;;;;;;;;;;21.16;60.47;100081.69;4350882;32;19971;-81
2022/06/17 04:21:14;;;;;;;;;;;;;;;20.85;61.42;100092.91;4332452;33;20005;-79
2022/06/17 04:23:41;;;;;;;;;;;;;;;20.99;61.13;100094.34;4326089;33;20010;-79
2022/06/17 04:26:16;;;;;;;;;;;;;;;20.98;61.33;100097.91;4350508;32;20255;-79
2022/06/17 04:28:49;;;;;;;;;;;;;;;20.89;62.17;100094.56;4357220;32;19971;-79
2022/06/17 04:31:21;;;;;;;;;;;;;;;21.21;60.70;100097.38;4352457;32;20039;-80
2022/06/17 04:33:50;;;;;;;;;;;;;;;21.23;60.32;100093.81;4330834;32;20002;-79
2022/06/17 04:36:19;;;;;;;;;;;;;;;21.43;59.62;100088.09;4355644;32;20050;-79
2022/06/17 04:38:48;;;;;;;;;;;;;;;21.05;61.54;100102.13;4348895;32;19984;-81
2022/06/17 04:41:15;;;;;;;;;;;;;;;21.34;60.60;100097.03;4355659;32;20013;-81
2022/06/17 04:43:47;;;;;;;;;;;;;;;21.23;61.30;100104.34;4349667;32;20022;-81
2022/06/17 04:46:19;;;;;;;;;;;;;;;21.49;60.14;100089.72;4348381;32;19987;-81
2022/06/17 04:48:51;;;;;;;;;;;;;;;21.34;61.10;100091.75;4354935;32;20460;-82
2022/06/17 04:51:18;;;;;;;;;;;;;;;21.43;60.43;100093.34;4348581;32;20002;-82
2022/06/17 04:53:46;;;;;;;;;;;;;;;21.60;59.83;100087.66;4324771;33;19991;-82
2022/06/17 04:56:16;;;;;;;;;;;;;;;21.58;60.65;100087.72;4341318;32;20002;-82
2022/06/17 04:58:43;;;;;;;;;;;;;;;21.67;59.38;100094.53;4349301;32;19999;-82
2022/06/17 05:01:11;;;;;;;;;;;;;;;21.85;58.04;100087.03;4351268;32;19984;-82
2022/06/17 05:03:40;;;;;;;;;;;;;;;21.81;58.49;100102.06;4353125;32;20010;-82
2022/06/17 05:06:07;;;;;;;;;;;;;;;21.99;56.82;100098.09;4325747;33;19988;-82
2022/06/17 05:08:34;;;;;;;;;;;;;;;21.81;57.31;100097.66;4327088;33;20031;-82
2022/06/17 05:11:05;;;;;;;;;;;;;;;21.83;58.20;100106.41;4350656;32;20014;-82
2022/06/17 05:13:36;;;;;;;;;;;;;;;21.79;58.51;100099.47;4339797;32;19972;-83
2022/06/17 05:16:05;;;;;;;;;;;;;;;21.88;57.21;100101.00;4355976;32;19983;-83
2022/06/17 05:18:32;;;;;;;;;;;;;;;22.00;57.00;100107.72;4329172;33;19976;-83
2022/06/17 05:21:00;;;;;;;;;;;;;;;21.97;56.64;100097.25;4339344;32;20002;-83
2022/06/17 05:23:27;;;;;;;;;;;;;;;21.83;58.92;100098.50;4339515;32;19975;-81
2022/06/17 05:25:54;;;;;;;;;;;;;;;22.13;56.39;100092.44;4333415;32;20038;-82
2022/06/17 05:28:21;;;;;;;;;;;;;;;22.00;58.25;100097.19;4332197;33;20034;-82
2022/06/17 05:30:51;;;;;;;;;;;;;;;22.18;56.28;100090.59;4325181;33;20011;-82
2022/06/17 05:33:24;;;;;;;;;;;;;;;22.13;57.10;100087.16;4346476;32;19991;-83
2022/06/17 05:35:52;;;;;;;;;;;;;;;22.22;56.87;100081.69;4324694;33;19988;-84
2022/06/17 05:38:20;;;;;;;;;;;;;;;22.65;54.72;100090.97;4354400;32;19979;-83
2022/06/17 05:40:48;;;;;;;;;;;;;;;22.55;55.30;100079.84;4336380;32;20112;-83
2022/06/17 05:43:15;;;;;;;;;;;;;;;22.45;56.11;100092.44;4346748;32;20122;-84
2022/06/17 05:45:42;;;;;;;;;;;;;;;22.53;55.37;100094.87;4332753;33;20100;-83
2022/06/17 05:48:09;;;;;;;;;;;;;;;22.65;54.92;100112.09;4347912;32;19980;-84
2022/06/17 05:50:36;;;;;;;;;;;;;;;22.73;55.20;100110.97;4324492;33;19984;-83
2022/06/17 05:53:05;;;;;;;;;;;;;;;22.62;54.87;100118.34;4331516;33;20277;-83
2022/06/17 05:55:33;;;;;;;;;;;;;;;22.53;54.96;100129.16;4324293;32;20042;-84
2022/06/17 05:58:00;;;;;;;;;;;;;;;22.83;54.92;100131.81;4354851;32;19967;-83
2022/06/17 06:00:28;;;;;;;;;;;;;;;23.12;52.93;100134.47;4352576;32;19988;-83
2022/06/17 06:03:00;;;;;;;;;;;;;;;22.89;52.97;100142.19;4349762;32;19999;-83
2022/06/17 06:05:32;;;;;;;;;;;;;;;22.97;53.50;100137.56;4349409;32;20553;-84
2022/06/17 06:08:00;;;;;;;;;;;;;;;22.99;53.96;100141.03;4354368;32;19999;-83
2022/06/17 06:10:33;;;;;;;;;;;;;;;23.18;52.42;100134.28;4351345;32;19976;-83
2022/06/17 06:13:03;;;;;;;;;;;;;;;22.87;53.53;100138.72;4326894;33;20002;-82
2022/06/17 06:15:39;;;;;;;;;;;;;;;23.06;53.04;100150.50;4326504;33;19992;-82
2022/06/17 06:18:07;;;;;;;;;;;;;;;23.12;52.72;100149.44;4349385;32;19979;-81
2022/06/17 06:20:34;;;;;;;;;;;;;;;23.05;53.55;100154.06;4327399;33;20015;-81
2022/06/17 06:23:01;;;;;;;;;;;;;;;23.24;52.04;100149.06;4331628;32;19980;-82
2022/06/17 06:25:29;;;;;;;;;;;;;;;22.88;53.78;100145.75;4331012;33;20015;-81
2022/06/17 06:27:57;;;;;;;;;;;;;;;23.26;53.20;100146.38;4335413;32;20939;-80
2022/06/17 06:30:28;;;;;;;;;;;;;;;23.52;53.10;100154.34;4350152;32;20027;-82
2022/06/17 06:32:56;;;;;;;;;;;;;;;23.75;51.66;100160.72;4348997;32;20009;-81
2022/06/17 06:35:25;;;;;;;;;;;;;;;23.61;52.77;100163.75;4334327;33;20030;-82
2022/06/17 06:37:52;;;;;;;;;;;;;;;23.51;53.99;100164.97;4352695;32;20069;-82
2022/06/17 06:40:22;;;;;;;;;;;;;;;23.88;52.02;100168.16;4334685;33;20070;-82
2022/06/17 06:42:50;;;;;;;;;;;;;;;23.82;53.64;100162.22;4335934;32;19980;-81
2022/06/17 06:45:25;;;;;;;;;;;;;;;23.97;51.30;100164.34;4337036;32;20330;-82
2022/06/17 06:47:52;;;;;;;;;;;;;;;23.54;53.93;100167.50;4329003;33;20031;-82
2022/06/17 06:50:20;;;;;;;;;;;;;;;23.78;53.54;100160.59;4357375;32;19991;-83
2022/06/17 06:52:49;;;;;;;;;;;;;;;24.10;53.01;100160.38;4335699;32;20723;-84
2022/06/17 06:55:16;;;;;;;;;;;;;;;24.52;49.73;100165.09;4327847;32;20005;-84
2022/06/17 06:57:48;;;;;;;;;;;;;;;24.86;48.83;100155.91;4332927;32;19976;-86
2022/06/17 07:00:16;;;;;;;;;;;;;;;24.92;49.08;100155.69;4348900;32;20003;-85
2022/06/17 07:02:44;;;;;;;;;;;;;;;24.98;48.33;100158.09;4348111;32;20022;-86
2022/06/17 07:05:11;;;;;;;;;;;;;;;24.96;50.18;100159.94;4355536;32;20021;-86
2022/06/17 07:07:39;;;;;;;;;;;;;;;25.04;48.68;100157.84;4378429;32;19976;-85
2022/06/17 07:10:07;;;;;;;;;;;;;;;25.01;50.65;100168.56;4354789;32;20309;-88
2022/06/17 07:12:34;;;;;;;;;;;;;;;25.29;50.06;100162.22;4355361;32;20037;-87
2022/06/17 07:15:03;;;;;;;;;;;;;;;25.59;48.38;100164.56;4353034;32;19995;-86
2022/06/17 07:17:30;;;;;;;;;;;;;;;25.48;49.44;100168.50;4334033;33;19976;-87
2022/06/17 07:19:56;;;;;;;;;;;;;;;25.65;46.59;100170.47;4325568;33;19983;-84
2022/06/17 07:22:23;;;;;;;;;;;;;;;25.88;47.16;100171.38;4325383;33;20047;-82
2022/06/17 07:24:50;;;;;;;;;;;;;;;26.04;46.51;100166.25;4330561;33;20038;-84
2022/06/17 07:27:18;;;;;;;;;;;;;;;26.28;45.34;100170.53;4335645;32;20406;-84
2022/06/17 07:29:44;;;;;;;;;;;;;;;26.74;44.19;100173.84;4333497;32;20003;-84
2022/06/17 07:32:11;;;;;;;;;;;;;;;26.82;44.11;100170.81;4362997;32;20338;-81
2022/06/17 07:34:41;;;;;;;;;;;;;;;26.80;44.24;100172.66;4341951;32;20356;-84
2022/06/17 07:39:55;;;;;;;;;;;;;;;26.82;44.84;100176.97;4345859;32;20043;-84
2022/06/17 07:42:23;;;;;;;;;;;;;;;26.73;45.12;100169.44;4343703;32;19983;-83
2022/06/17 07:44:51;;;;;;;;;;;;;;;27.20;43.32;100177.03;4343781;32;20423;-83
2022/06/17 07:47:19;;;;;;;;;;;;;;;26.92;44.31;100173.91;4339088;32;19990;-82
2022/06/17 07:49:46;;;;;;;;;;;;;;;27.10;44.59;100175.72;4340004;32;19975;-83
2022/06/17 07:52:13;;;;;;;;;;;;;;;27.41;43.70;100179.59;4361797;32;20011;-82
2022/06/17 07:54:40;;;;;;;;;;;;;;;27.43;43.61;100172.41;4326735;32;20449;-82
2022/06/17 07:57:09;;;;;;;;;;;;;;;27.71;43.45;100172.78;4337724;33;20682;-82
2022/06/17 07:59:37;;;;;;;;;;;;;;;27.88;42.93;100173.78;4363777;32;20366;-82
2022/06/17 08:02:04;;;;;;;;;;;;;;;27.93;43.40;100182.41;4340413;32;20011;-83
2022/06/17 08:04:32;;;;;;;;;;;;;;;28.23;42.82;100191.47;4335517;32;19991;-82
2022/06/17 08:06:59;;;;;;;;;;;;;;;27.78;43.66;100182.22;4337536;32;19980;-82
2022/06/17 08:09:28;;;;;;;;;;;;;;;28.13;44.06;100179.56;4340557;32;19972;-83
2022/06/17 08:11:55;;;;;;;;;;;;;;;27.90;46.74;100178.09;4338846;32;20010;-84
2022/06/17 08:14:22;;;;;;;;;;;;;;;28.10;44.22;100185.06;4355428;32;19980;-84
2022/06/17 08:16:49;;;;;;;;;;;;;;;28.64;42.32;100191.12;4329733;33;20062;-82
2022/06/17 08:19:16;;;;;;;;;;;;;;;28.40;42.80;100181.78;4329786;32;20035;-83
2022/06/17 08:21:43;;;;;;;;;;;;;;;28.53;43.79;100177.53;4348639;32;20010;-82
2022/06/17 08:24:25;;;;;;;;;;;;;;;28.76;42.61;100188.78;4325868;33;19992;-84
2022/06/17 08:26:52;;;;;;;;;;;;;;;28.69;43.65;100183.78;4332992;32;20013;-85
2022/06/17 08:29:20;;;;;;;;;;;;;;;28.99;41.88;100191.03;4336504;32;20687;-85
2022/06/17 08:34:53;;;;;;;;;;;;;;;29.31;41.33;100177.75;4340440;32;19995;-81
2022/06/17 08:37:20;;;;;;;;;;;;;;;29.42;41.59;100178.03;4340329;32;20033;-83
2022/06/17 08:39:47;;;;;;;;;;;;;;;29.59;40.64;100175.25;4340636;32;20022;-84
2022/06/17 08:42:37;;;;;;;;;;;;;;;29.82;37.85;100178.44;4322675;32;19988;-85
2022/06/17 08:45:23;;;;;;;;;;;;;;;29.74;36.96;100175.34;4361521;32;20034;-84
2022/06/17 08:47:50;;;;;;;;;;;;;;;29.75;36.97;100187.75;4332149;33;20034;-84
2022/06/17 08:50:21;;;;;;;;;;;;;;;30.13;31.96;100186.34;4328648;33;20378;-81
2022/06/17 08:52:53;;;;;;;;;;;;;;;30.27;33.20;100184.69;4328323;32;19980;-81
2022/06/17 08:55:20;;;;;;;;;;;;;;;30.21;37.30;100190.41;4325664;33;19979;-82
2022/06/17 08:58:13;;;;;;;;;;;;;;;30.66;35.68;100188.53;4325132;33;20034;-81
2022/06/17 09:00:56;;;;;;;;;;;;;;;31.02;33.30;100191.62;4325803;32;19980;-82
2022/06/17 09:03:29;;;;;;;;;;;;;;;30.13;38.44;100189.00;4350819;32;19987;-82
2022/06/17 09:05:56;;;;;;;;;;;;;;;30.71;33.22;100195.31;4330239;32;20357;-80
2022/06/17 09:08:41;;;;;;;;;;;;;;;30.31;39.36;100196.91;4325125;33;20014;-81
2022/06/17 09:11:08;;;;;;;;;;;;;;;30.86;33.19;100206.94;4332593;33;20660;-81
2022/06/17 09:13:54;;;;;;;;;;;;;;;30.87;35.97;100207.78;4339791;32;20382;-84
2022/06/17 09:16:24;;;;;;;;;;;;;;;31.16;38.14;100208.62;4340347;33;20039;-82
2022/06/17 09:18:56;;;;;;;;;;;;;;;30.83;37.65;100206.25;4336946;32;20318;-82
2022/06/17 09:21:25;;;;;;;;;;;;;;;30.86;30.97;100212.28;4356030;32;19976;-83
2022/06/17 09:23:53;;;;;;;;;;;;;;;31.00;32.47;100209.56;4354927;32;20063;-82
2022/06/17 09:26:25;;;;;;;;;;;;;;;31.28;32.80;100213.19;4356681;32;20074;-81
2022/06/17 09:28:55;;;;;;;;;;;;;;;31.61;34.05;100209.31;4355017;32;19984;-83
2022/06/17 09:31:32;;;;;;;;;;;;;;;31.16;34.65;100211.28;4335097;32;19993;-83
2022/06/17 09:34:04;;;;;;;;;;;;;;;30.88;38.73;100215.69;4326138;33;19980;-81
2022/06/17 09:36:39;;;;;;;;;;;;;;;31.14;37.20;100210.50;4327015;33;20000;-83
2022/06/17 09:39:09;;;;;;;;;;;;;;;31.04;37.05;100211.09;4350211;32;20433;-83
2022/06/17 09:41:43;;;;;;;;;;;;;;;31.49;32.60;100217.19;4316045;32;20011;-81
2022/06/17 09:44:14;;;;;;;;;;;;;;;31.29;34.37;100220.25;4326857;33;20791;-83
2022/06/17 09:46:49;;;;;;;;;;;;;;;31.47;34.08;100221.78;4331896;33;20332;-83
2022/06/17 09:49:35;;;;;;;;;;;;;;;31.47;33.83;100229.78;4329307;32;20261;-82
2022/06/17 09:52:06;;;;;;;;;;;;;;;31.49;33.21;100227.91;4332172;33;20006;-84
2022/06/17 09:54:56;;;;;;;;;;;;;;;31.31;33.35;100239.75;4329229;32;20040;-82
2022/06/17 09:57:26;;;;;;;;;;;;;;;31.25;31.85;100235.62;4330361;32;19989;-83
2022/06/17 10:00:01;;;;;;;;;;;;;;;31.39;32.13;100237.44;4356349;32;19983;-82
2022/06/17 10:02:34;;;;;;;;;;;;;;;31.55;31.14;100244.50;4326921;32;19998;-81
2022/06/17 10:05:05;;;;;;;;;;;;;;;31.37;33.95;100255.44;4327001;33;20031;-82
2022/06/17 10:07:36;;;;;;;;;;;;;;;31.40;34.43;100244.53;4351528;32;19971;-81
2022/06/17 10:10:16;;;;;;;;;;;;;;;31.65;31.21;100253.63;4358171;32;20038;-81
2022/06/17 10:13:01;;;;;;;;;;;;;;;31.63;31.27;100255.56;4358280;32;20444;-82
2022/06/17 10:15:41;;;;;;;;;;;;;;;31.33;33.10;100259.25;4364443;32;19975;-83
2022/06/17 10:18:34;;;;;;;;;;;;;;;31.24;33.49;100259.81;4338825;32;20040;-83
2022/06/17 10:21:28;;;;;;;;;;;;;;;31.54;32.00;100264.19;4356998;32;19979;-82
2022/06/17 10:24:10;;;;;;;;;;;;;;;31.59;32.20;100254.03;4346516;32;20007;-82
2022/06/17 10:26:40;;;;;;;;;;;;;;;31.57;32.32;100269.34;4329563;32;20023;-82
2022/06/17 10:29:11;;;;;;;;;;;;;;;31.10;37.04;100268.69;4338401;33;20797;-81
2022/06/17 10:31:45;;;;;;;;;;;;;;;31.42;33.49;100266.69;4339564;32;19984;-81
2022/06/17 10:34:12;;;;;;;;;;;;;;;31.30;33.79;100259.41;4356567;32;19976;-81
2022/06/17 10:36:39;;;;;;;;;;;;;;;31.48;33.68;100263.63;4326920;33;19984;-83
2022/06/17 10:39:06;;;;;;;;;;;;;;;31.81;30.22;100270.41;4326872;33;20007;-82
2022/06/17 10:41:33;;;;;;;;;;;;;;;31.69;32.90;100266.75;4358247;32;20368;-82
2022/06/17 10:44:01;;;;;;;;;;;;;;;31.84;31.54;100267.53;4350764;32;20707;-82
2022/06/17 10:46:29;;;;;;;;;;;;;;;31.83;29.96;100256.94;4328786;33;20035;-82
2022/06/17 10:48:58;;;;;;;;;;;;;;;31.92;30.01;100251.88;4326339;32;20030;-81
2022/06/17 10:51:25;;;;;;;;;;;;;;;32.00;29.51;100258.53;4337154;33;19998;-82
2022/06/17 10:53:52;;;;;;;;;;;;;;;31.66;30.14;100266.09;4356124;32;20003;-82
2022/06/17 10:56:22;;;;;;;;;;;;;;;31.70;28.65;100263.09;4335539;32;20011;-82
2022/06/17 10:58:56;;;;;;;;;;;;;;;31.86;28.18;100262.09;4344259;32;20003;-81
2022/06/17 11:01:24;;;;;;;;;;;;;;;31.44;33.15;100262.09;4333923;33;20007;-82
2022/06/17 11:04:12;;;;;;;;;;;;;;;31.29;31.53;100268.41;4327889;32;19976;-82
2022/06/17 11:06:51;;;;;;;;;;;;;;;31.83;29.92;100268.50;4336843;33;19984;-82
2022/06/17 11:09:23;;;;;;;;;;;;;;;31.78;29.00;100261.72;4364185;32;19995;-82
2022/06/17 11:12:03;;;;;;;;;;;;;;;31.52;30.65;100263.41;4352447;32;20043;-83
2022/06/17 11:14:33;;;;;;;;;;;;;;;31.79;31.00;100267.00;4331982;33;19976;-83
2022/06/17 11:17:01;;;;;;;;;;;;;;;31.87;28.14;100248.59;4350597;32;20031;-83
2022/06/17 11:19:28;;;;;;;;;;;;;;;31.48;31.87;100258.25;4362248;32;20006;-84
2022/06/17 11:21:56;;;;;;;;;;;;;;;31.26;28.41;100273.94;4338070;32;20010;-84
2022/06/17 11:24:25;;;;;;;;;;;;;;;31.35;29.57;100268.03;4337377;33;20008;-84
2022/06/17 11:27:19;;;;;;;;;;;;;;;31.13;29.16;100267.66;4336941;32;20054;-84
2022/06/17 11:29:47;;;;;;;;;;;;;;;31.26;26.79;100269.44;4334681;32;20014;-85
2022/06/17 11:32:20;;;;;;;;;;;;;;;31.31;29.17;100266.50;4357934;32;20038;-84
2022/06/17 11:35:16;;;;;;;;;;;;;;;31.09;29.49;100271.47;4343959;32;19992;-85
2022/06/17 11:37:44;;;;;;;;;;;;;;;31.08;30.28;100259.94;4326342;33;19999;-84
2022/06/17 11:40:11;;;;;;;;;;;;;;;30.80;30.98;100260.78;4357068;32;20050;-84
2022/06/17 11:42:49;;;;;;;;;;;;;;;30.82;30.78;100264.19;4327912;33;19979;-84
2022/06/17 11:45:23;;;;;;;;;;;;;;;30.72;31.21;100263.00;4364703;32;20027;-84
2022/06/17 11:47:54;;;;;;;;;;;;;;;30.28;33.61;100269.19;4339837;32;19984;-84
2022/06/17 11:50:23;;;;;;;;;;;;;;;30.51;31.44;100274.06;4349102;32;20394;-84
2022/06/17 11:52:51;;;;;;;;;;;;;;;30.66;30.92;100264.22;4361326;32;20407;-84
2022/06/17 11:55:18;;;;;;;;;;;;;;;30.55;30.87;100267.56;4363288;32;19979;-85
2022/06/17 11:58:05;;;;;;;;;;;;;;;30.46;32.21;100260.09;4360408;32;19984;-85
2022/06/17 12:00:46;;;;;;;;;;;;;;;29.97;33.41;100244.28;4362922;32;19991;-85
2022/06/17 12:03:14;;;;;;;;;;;;;;;30.45;31.91;100245.03;4338822;33;19980;-85
2022/06/17 12:05:41;;;;;;;;;;;;;;;30.63;29.81;100247.53;4358056;32;20013;-85
2022/06/17 12:08:17;;;;;;;;;;;;;;;30.58;30.47;100240.66;4343370;32;20003;-84
2022/06/17 12:10:49;;;;;;;;;;;;;;;30.98;27.94;100243.59;4362134;32;20006;-84
2022/06/17 12:13:21;;;;;;;;;;;;;;;30.92;29.29;100227.94;4363030;32;19998;-83
2022/06/17 12:15:56;;;;;;;;;;;;;;;30.76;28.81;100227.09;4363195;32;20432;-84
2022/06/17 12:18:24;;;;;;;;;;;;;;;30.39;30.32;100234.69;4339809;32;19988;-84
2022/06/17 12:20:51;;;;;;;;;;;;;;;30.53;31.02;100226.69;4361426;32;20006;-84
2022/06/17 12:23:20;;;;;;;;;;;;;;;30.43;32.55;100224.69;4338146;32;19987;-85
2022/06/17 12:25:50;;;;;;;;;;;;;;;30.78;28.94;100225.25;4362311;32;20038;-85
2022/06/17 12:28:36;;;;;;;;;;;;;;;30.59;29.46;100218.31;4361318;32;20005;-86
2022/06/17 12:31:06;;;;;;;;;;;;;;;30.67;28.19;100222.34;4337780;33;20062;-86
2022/06/17 12:33:38;;;;;;;;;;;;;;;30.44;29.76;100221.94;4364089;32;20055;-84
2022/06/17 12:36:08;;;;;;;;;;;;;;;30.64;27.96;100222.53;4365849;32;20005;-86
2022/06/17 12:38:47;;;;;;;;;;;;;;;30.64;27.91;100222.53;4357829;32;19984;-85
2022/06/17 12:41:30;;;;;;;;;;;;;;;30.40;29.10;100215.03;4343956;32;20006;-86
2022/06/17 12:44:07;;;;;;;;;;;;;;;30.67;29.05;100211.66;4335016;33;20027;-85
2022/06/17 12:46:42;;;;;;;;;;;;;;;30.39;31.92;100226.69;4325015;33;19983;-86
2022/06/17 12:55:27;;;;;;;;;;;;;;;30.77;27.67;100218.19;4325125;33;20350;-86
2022/06/17 12:58:05;;;;;;;;;;;;;;;30.78;27.41;100206.53;4346930;32;20046;-86
2022/06/17 13:00:39;;;;;;;;;;;;;;;30.69;27.65;100212.41;4334748;33;19980;-88
2022/06/17 13:03:22;;;;;;;;;;;;;;;30.23;28.25;100196.50;4332038;33;20020;-86
2022/06/17 13:05:50;;;;;;;;;;;;;;;30.31;29.36;100194.22;4325512;33;20001;-86
2022/06/17 13:08:40;;;;;;;;;;;;;;;30.44;29.56;100205.91;4322499;33;20028;-86
2022/06/17 13:11:26;;;;;;;;;;;;;;;30.10;29.70;100196.34;4333069;33;19988;-85